LFBC 230630Z AUTO 36005KT 5000 -RADZ BR BKN005 BKN013 OVC023 19/18 Q1022 TEMPO DZ
LFBD 230630Z AUTO 35004KT 320V030 8000 BKN008 BKN016 OVC023 19/17 Q1022 TEMPO 4000 DZ BECMG BKN020